sensor_id;sensor_type;location;lat;lon;timestamp;pressure;altitude;pressure_sealevel;temperature;humidity
3132;BME280;62090;52.330;9.104;2024-01-16T00:04:55;99886.84;;;2.26;100.00
3132;BME280;62090;52.330;9.104;2024-01-16T00:07:25;99794.66;;;1.67;100.00
3132;BME280;62090;52.330;9.104;2024-01-16T00:09:55;99907.16;;;2.31;100.00
3132;BME280;62090;52.330;9.104;2024-01-16T00:12:26;99908.06;;;2.33;100.00
3132;BME280;62090;52.330;9.104;2024-01-16T00:14:56;99906.41;;;2.33;100.00
3132;BME280;62090;52.330;9.104;2024-01-16T00:17:26;99906.69;;;2.39;100.00
3132;BME280;62090;52.330;9.104;2024-01-16T00:19:59;99916.16;;;2.45;100.00
3132;BME280;62090;52.330;9.104;2024-01-16T00:22:32;99848.22;;;2.05;100.00
3132;BME280;62090;52.330;9.104;2024-01-16T00:25:03;99929.38;;;2.41;100.00
3132;BME280;62090;52.330;9.104;2024-01-16T00:27:33;99923.09;;;2.31;100.00
3132;BME280;62090;52.330;9.104;2024-01-16T00:30:04;99905.91;;;2.21;100.00
3132;BME280;62090;52.330;9.104;2024-01-16T00:32:34;99928.16;;;2.33;100.00
3132;BME280;62090;52.330;9.104;2024-01-16T00:35:08;99906.69;;;2.20;100.00
3132;BME280;62090;52.330;9.104;2024-01-16T00:37:38;99931.31;;;2.27;100.00
3132;BME280;62090;52.330;9.104;2024-01-16T00:40:09;99931.16;;;2.24;100.00
3132;BME280;62090;52.330;9.104;2024-01-16T00:42:40;99935.78;;;2.15;100.00
3132;BME280;62090;52.330;9.104;2024-01-16T00:45:10;99871.06;;;1.92;100.00
3132;BME280;62090;52.330;9.104;2024-01-16T00:47:40;99891.44;;;1.98;100.00
3132;BME280;62090;52.330;9.104;2024-01-16T00:50:14;99925.94;;;2.20;100.00
3132;BME280;62090;52.330;9.104;2024-01-16T00:52:44;99929.41;;;2.04;100.00
3132;BME280;62090;52.330;9.104;2024-01-16T00:55:15;99871.06;;;1.73;100.00
3132;BME280;62090;52.330;9.104;2024-01-16T00:57:45;99948.06;;;2.09;100.00
3132;BME280;62090;52.330;9.104;2024-01-16T01:00:15;99944.81;;;2.11;100.00
3132;BME280;62090;52.330;9.104;2024-01-16T01:02:45;99955.88;;;2.15;100.00
3132;BME280;62090;52.330;9.104;2024-01-16T01:05:18;99897.16;;;1.76;100.00
3132;BME280;62090;52.330;9.104;2024-01-16T01:07:52;99877.72;;;1.54;100.00
3132;BME280;62090;52.330;9.104;2024-01-16T01:10:22;99980.72;;;2.09;100.00
3132;BME280;62090;52.330;9.104;2024-01-16T01:12:52;99968.03;;;2.06;100.00
3132;BME280;62090;52.330;9.104;2024-01-16T01:15:22;99981.72;;;2.12;100.00
3132;BME280;62090;52.330;9.104;2024-01-16T01:17:53;99989.34;;;2.14;100.00
3132;BME280;62090;52.330;9.104;2024-01-16T01:20:27;99992.63;;;2.13;100.00
3132;BME280;62090;52.330;9.104;2024-01-16T01:22:57;99977.44;;;2.10;100.00
3132;BME280;62090;52.330;9.104;2024-01-16T01:25:27;99998.06;;;2.22;100.00
3132;BME280;62090;52.330;9.104;2024-01-16T01:27:57;99994.47;;;2.17;100.00
3132;BME280;62090;52.330;9.104;2024-01-16T01:30:27;99996.94;;;2.16;100.00
3132;BME280;62090;52.330;9.104;2024-01-16T01:32:57;99955.31;;;1.85;100.00
3132;BME280;62090;52.330;9.104;2024-01-16T01:35:30;100009.03;;;2.05;100.00
3132;BME280;62090;52.330;9.104;2024-01-16T01:38:00;99980.53;;;1.87;100.00
3132;BME280;62090;52.330;9.104;2024-01-16T01:40:31;100009.59;;;1.99;100.00
3132;BME280;62090;52.330;9.104;2024-01-16T01:43:19;100008.72;;;1.99;100.00
3132;BME280;62090;52.330;9.104;2024-01-16T01:46:05;100000.91;;;1.93;100.00
3132;BME280;62090;52.330;9.104;2024-01-16T01:48:39;100005.00;;;1.91;100.00
3132;BME280;62090;52.330;9.104;2024-01-16T01:51:14;100005.50;;;1.84;100.00
3132;BME280;62090;52.330;9.104;2024-01-16T01:53:49;100012.97;;;1.82;100.00
3132;BME280;62090;52.330;9.104;2024-01-16T01:56:20;100005.72;;;1.70;100.00
3132;BME280;62090;52.330;9.104;2024-01-16T01:58:54;100018.38;;;1.90;100.00
3132;BME280;62090;52.330;9.104;2024-01-16T02:01:28;100031.63;;;1.87;100.00
3132;BME280;62090;52.330;9.104;2024-01-16T02:03:59;100012.31;;;1.68;100.00
3132;BME280;62090;52.330;9.104;2024-01-16T02:06:32;99998.41;;;1.57;100.00
3132;BME280;62090;52.330;9.104;2024-01-16T02:09:02;100041.47;;;1.83;100.00
3132;BME280;62090;52.330;9.104;2024-01-16T02:11:34;100023.44;;;1.74;100.00
3132;BME280;62090;52.330;9.104;2024-01-16T02:14:04;100041.75;;;1.89;100.00
3132;BME280;62090;52.330;9.104;2024-01-16T02:16:36;100043.81;;;1.97;100.00
3132;BME280;62090;52.330;9.104;2024-01-16T02:19:07;100056.53;;;2.00;100.00
3132;BME280;62090;52.330;9.104;2024-01-16T02:21:43;100040.22;;;1.92;100.00
3132;BME280;62090;52.330;9.104;2024-01-16T02:24:19;100042.44;;;1.86;100.00
3132;BME280;62090;52.330;9.104;2024-01-16T02:26:49;100066.59;;;2.00;100.00
3132;BME280;62090;52.330;9.104;2024-01-16T02:29:19;100061.31;;;1.96;100.00
3132;BME280;62090;52.330;9.104;2024-01-16T02:31:49;100064.88;;;1.99;100.00
3132;BME280;62090;52.330;9.104;2024-01-16T02:34:20;100067.47;;;2.01;100.00
3132;BME280;62090;52.330;9.104;2024-01-16T02:36:50;100071.88;;;2.06;100.00
3132;BME280;62090;52.330;9.104;2024-01-16T02:39:23;100017.78;;;1.78;100.00
3132;BME280;62090;52.330;9.104;2024-01-16T02:41:53;100072.63;;;2.04;100.00
3132;BME280;62090;52.330;9.104;2024-01-16T02:44:23;100052.59;;;1.88;100.00
3132;BME280;62090;52.330;9.104;2024-01-16T02:46:53;100070.59;;;1.97;100.00
3132;BME280;62090;52.330;9.104;2024-01-16T02:49:24;100072.97;;;1.94;100.00
3132;BME280;62090;52.330;9.104;2024-01-16T02:51:54;100057.97;;;1.78;100.00
3132;BME280;62090;52.330;9.104;2024-01-16T02:54:27;100070.16;;;1.88;100.00
3132;BME280;62090;52.330;9.104;2024-01-16T02:56:57;100074.03;;;1.81;100.00
3132;BME280;62090;52.330;9.104;2024-01-16T02:59:27;100069.88;;;1.82;100.00
3132;BME280;62090;52.330;9.104;2024-01-16T03:01:58;100080.84;;;1.84;100.00
3132;BME280;62090;52.330;9.104;2024-01-16T03:04:28;100083.22;;;1.81;100.00
3132;BME280;62090;52.330;9.104;2024-01-16T03:06:58;100053.75;;;1.60;100.00
3132;BME280;62090;52.330;9.104;2024-01-16T03:09:31;100068.56;;;1.72;100.00
3132;BME280;62090;52.330;9.104;2024-01-16T03:12:02;100083.94;;;1.78;100.00
3132;BME280;62090;52.330;9.104;2024-01-16T03:14:32;100081.50;;;1.80;100.00
3132;BME280;62090;52.330;9.104;2024-01-16T03:17:04;100050.81;;;1.51;100.00
3132;BME280;62090;52.330;9.104;2024-01-16T03:19:34;100086.06;;;1.70;100.00
3132;BME280;62090;52.330;9.104;2024-01-16T03:22:04;100076.66;;;1.66;100.00
3132;BME280;62090;52.330;9.104;2024-01-16T03:24:37;100085.28;;;1.72;100.00
3132;BME280;62090;52.330;9.104;2024-01-16T03:27:07;100066.47;;;1.63;100.00
3132;BME280;62090;52.330;9.104;2024-01-16T03:29:37;100065.22;;;1.55;100.00
3132;BME280;62090;52.330;9.104;2024-01-16T03:32:07;100080.47;;;1.58;100.00
3132;BME280;62090;52.330;9.104;2024-01-16T03:34:38;100095.66;;;1.61;100.00
3132;BME280;62090;52.330;9.104;2024-01-16T03:37:08;100058.81;;;1.44;100.00
3132;BME280;62090;52.330;9.104;2024-01-16T03:39:40;100061.66;;;1.34;100.00
3132;BME280;62090;52.330;9.104;2024-01-16T03:42:12;100059.56;;;1.25;100.00
3132;BME280;62090;52.330;9.104;2024-01-16T03:44:42;100102.09;;;1.56;100.00
3132;BME280;62090;52.330;9.104;2024-01-16T03:47:12;100100.38;;;1.55;100.00
3132;BME280;62090;52.330;9.104;2024-01-16T03:49:42;100038.00;;;1.13;100.00
3132;BME280;62090;52.330;9.104;2024-01-16T03:52:13;100013.88;;;0.99;100.00
3132;BME280;62090;52.330;9.104;2024-01-16T03:54:46;100067.63;;;1.36;100.00
3132;BME280;62090;52.330;9.104;2024-01-16T03:57:16;100078.59;;;1.38;100.00
3132;BME280;62090;52.330;9.104;2024-01-16T03:59:46;100109.00;;;1.60;100.00
3132;BME280;62090;52.330;9.104;2024-01-16T04:02:16;100117.25;;;1.58;100.00
3132;BME280;62090;52.330;9.104;2024-01-16T04:04:47;100088.88;;;1.43;100.00
3132;BME280;62090;52.330;9.104;2024-01-16T04:07:17;100104.16;;;1.47;100.00
3132;BME280;62090;52.330;9.104;2024-01-16T04:09:50;100122.63;;;1.65;100.00
3132;BME280;62090;52.330;9.104;2024-01-16T04:12:20;100114.25;;;1.65;100.00
3132;BME280;62090;52.330;9.104;2024-01-16T04:14:50;100124.47;;;1.68;100.00
3132;BME280;62090;52.330;9.104;2024-01-16T04:17:20;100083.53;;;1.53;100.00
3132;BME280;62090;52.330;9.104;2024-01-16T04:19:50;100131.66;;;1.78;100.00
3132;BME280;62090;52.330;9.104;2024-01-16T04:22:20;100123.59;;;1.67;100.00
3132;BME280;62090;52.330;9.104;2024-01-16T04:24:53;100130.56;;;1.73;100.00
3132;BME280;62090;52.330;9.104;2024-01-16T04:27:23;100126.19;;;1.69;100.00
3132;BME280;62090;52.330;9.104;2024-01-16T04:29:54;100126.53;;;1.77;100.00
3132;BME280;62090;52.330;9.104;2024-01-16T04:32:24;100126.72;;;1.80;100.00
3132;BME280;62090;52.330;9.104;2024-01-16T04:34:54;100121.75;;;1.81;100.00
3132;BME280;62090;52.330;9.104;2024-01-16T04:37:24;100115.28;;;1.86;100.00
3132;BME280;62090;52.330;9.104;2024-01-16T04:39:57;100097.84;;;1.72;100.00
3132;BME280;62090;52.330;9.104;2024-01-16T04:42:28;100053.16;;;1.48;100.00
3132;BME280;62090;52.330;9.104;2024-01-16T04:44:58;100108.97;;;1.77;100.00
3132;BME280;62090;52.330;9.104;2024-01-16T04:47:28;100113.03;;;1.75;100.00
3132;BME280;62090;52.330;9.104;2024-01-16T04:49:58;100117.63;;;1.65;100.00
3132;BME280;62090;52.330;9.104;2024-01-16T04:52:28;100112.69;;;1.67;100.00
3132;BME280;62090;52.330;9.104;2024-01-16T04:55:01;100107.56;;;1.65;100.00
3132;BME280;62090;52.330;9.104;2024-01-16T04:57:31;100115.19;;;1.67;100.00
3132;BME280;62090;52.330;9.104;2024-01-16T05:00:02;100116.19;;;1.70;100.00
3132;BME280;62090;52.330;9.104;2024-01-16T05:02:34;100083.28;;;1.48;100.00
3132;BME280;62090;52.330;9.104;2024-01-16T05:05:05;100118.88;;;1.74;100.00
3132;BME280;62090;52.330;9.104;2024-01-16T05:07:36;99880.69;;;0.26;100.00
3132;BME280;62090;52.330;9.104;2024-01-16T05:10:09;100100.38;;;1.55;100.00
3132;BME280;62090;52.330;9.104;2024-01-16T05:12:41;100122.19;;;1.56;100.00
3132;BME280;62090;52.330;9.104;2024-01-16T05:15:11;100128.22;;;1.60;100.00
3132;BME280;62090;52.330;9.104;2024-01-16T05:17:42;100127.34;;;1.59;100.00
3132;BME280;62090;52.330;9.104;2024-01-16T05:20:12;100122.50;;;1.62;100.00
3132;BME280;62090;52.330;9.104;2024-01-16T05:22:42;100124.78;;;1.58;100.00
3132;BME280;62090;52.330;9.104;2024-01-16T05:25:15;100121.72;;;1.63;100.00
3132;BME280;62090;52.330;9.104;2024-01-16T05:27:47;100059.56;;;1.25;100.00
3132;BME280;62090;52.330;9.104;2024-01-16T05:30:17;100078.75;;;1.41;100.00
3132;BME280;62090;52.330;9.104;2024-01-16T05:32:48;100110.59;;;1.58;100.00
3132;BME280;62090;52.330;9.104;2024-01-16T05:35:19;100016.53;;;1.02;100.00
3132;BME280;62090;52.330;9.104;2024-01-16T05:37:52;100115.31;;;1.52;100.00
3132;BME280;62090;52.330;9.104;2024-01-16T05:40:25;100096.22;;;1.56;100.00
3132;BME280;62090;52.330;9.104;2024-01-16T05:42:55;100113.88;;;1.57;100.00
3132;BME280;62090;52.330;9.104;2024-01-16T05:45:25;100107.66;;;1.67;100.00
3132;BME280;62090;52.330;9.104;2024-01-16T05:47:55;100108.31;;;1.63;100.00
3132;BME280;62090;52.330;9.104;2024-01-16T05:50:26;100109.25;;;1.49;100.00
3132;BME280;62090;52.330;9.104;2024-01-16T05:52:58;100112.16;;;1.56;100.00
3132;BME280;62090;52.330;9.104;2024-01-16T05:55:32;100065.91;;;1.35;100.00
3132;BME280;62090;52.330;9.104;2024-01-16T05:58:03;100115.88;;;1.64;100.00
3132;BME280;62090;52.330;9.104;2024-01-16T06:00:34;100110.31;;;1.70;100.00
3132;BME280;62090;52.330;9.104;2024-01-16T06:03:06;100105.28;;;1.70;100.00
3132;BME280;62090;52.330;9.104;2024-01-16T06:05:36;100109.63;;;1.73;100.00
3132;BME280;62090;52.330;9.104;2024-01-16T06:08:07;100093.28;;;1.64;100.00
3132;BME280;62090;52.330;9.104;2024-01-16T06:10:39;100109.91;;;1.79;100.00
3132;BME280;62090;52.330;9.104;2024-01-16T06:13:09;100108.00;;;1.75;100.00
3132;BME280;62090;52.330;9.104;2024-01-16T06:15:40;100102.56;;;1.65;100.00
3132;BME280;62090;52.330;9.104;2024-01-16T06:18:10;100010.50;;;1.14;100.00
3132;BME280;62090;52.330;9.104;2024-01-16T06:20:40;100067.78;;;1.39;100.00
3132;BME280;62090;52.330;9.104;2024-01-16T06:23:10;100106.81;;;1.50;100.00
3132;BME280;62090;52.330;9.104;2024-01-16T06:25:43;100102.56;;;1.49;100.00
3132;BME280;62090;52.330;9.104;2024-01-16T06:28:13;100098.97;;;1.44;100.00
3132;BME280;62090;52.330;9.104;2024-01-16T06:30:43;100102.44;;;1.46;100.00
3132;BME280;62090;52.330;9.104;2024-01-16T06:33:13;100058.53;;;1.22;100.00
3132;BME280;62090;52.330;9.104;2024-01-16T06:35:44;100105.81;;;1.47;100.00
3132;BME280;62090;52.330;9.104;2024-01-16T06:38:18;100092.09;;;1.40;100.00
3132;BME280;62090;52.330;9.104;2024-01-16T06:40:51;100110.28;;;1.52;100.00
3132;BME280;62090;52.330;9.104;2024-01-16T06:43:21;100108.63;;;1.53;100.00
3132;BME280;62090;52.330;9.104;2024-01-16T06:45:51;100099.75;;;1.43;100.00
3132;BME280;62090;52.330;9.104;2024-01-16T06:48:22;100110.28;;;1.52;100.00
3132;BME280;62090;52.330;9.104;2024-01-16T06:50:52;100108.38;;;1.48;100.00
3132;BME280;62090;52.330;9.104;2024-01-16T06:53:22;100125.91;;;1.47;100.00
3132;BME280;62090;52.330;9.104;2024-01-16T06:55:55;100035.81;;;1.03;100.00
3132;BME280;62090;52.330;9.104;2024-01-16T06:58:25;100118.59;;;1.51;100.00
3132;BME280;62090;52.330;9.104;2024-01-16T07:00:53;100105.84;;;1.31;100.00
3132;BME280;62090;52.330;9.104;2024-01-16T07:03:24;100118.16;;;1.26;100.00
3132;BME280;62090;52.330;9.104;2024-01-16T07:05:54;100134.13;;;1.44;100.00
3132;BME280;62090;52.330;9.104;2024-01-16T07:08:24;100112.25;;;1.25;100.00
3132;BME280;62090;52.330;9.104;2024-01-16T07:10:57;100133.25;;;1.44;100.00
3132;BME280;62090;52.330;9.104;2024-01-16T07:13:27;100110.13;;;1.17;100.00
3132;BME280;62090;52.330;9.104;2024-01-16T07:15:57;100139.78;;;1.40;100.00
3132;BME280;62090;52.330;9.104;2024-01-16T07:18:28;100147.94;;;1.36;100.00
3132;BME280;62090;52.330;9.104;2024-01-16T07:20:58;100147.22;;;1.39;100.00
3132;BME280;62090;52.330;9.104;2024-01-16T07:23:30;100143.94;;;1.40;100.00
3132;BME280;62090;52.330;9.104;2024-01-16T07:26:03;100073.91;;;0.96;100.00
3132;BME280;62090;52.330;9.104;2024-01-16T07:28:34;100147.94;;;1.36;100.00
3132;BME280;62090;52.330;9.104;2024-01-16T07:31:05;100129.28;;;1.31;100.00
3132;BME280;62090;52.330;9.104;2024-01-16T07:33:36;100066.66;;;1.00;100.00
3132;BME280;62090;52.330;9.104;2024-01-16T07:36:08;100143.38;;;1.45;100.00
3132;BME280;62090;52.330;9.104;2024-01-16T07:38:39;100138.28;;;1.44;100.00
3132;BME280;62090;52.330;9.104;2024-01-16T07:41:11;100064.41;;;0.90;100.00
3132;BME280;62090;52.330;9.104;2024-01-16T07:43:42;100142.44;;;1.43;100.00
3132;BME280;62090;52.330;9.104;2024-01-16T07:46:15;100147.41;;;1.42;100.00
3132;BME280;62090;52.330;9.104;2024-01-16T07:48:46;100139.63;;;1.37;100.00
3132;BME280;62090;52.330;9.104;2024-01-16T07:51:16;100149.50;;;1.34;100.00
3132;BME280;62090;52.330;9.104;2024-01-16T07:53:46;100148.00;;;1.38;100.00
3132;BME280;62090;52.330;9.104;2024-01-16T07:56:21;100091.31;;;1.09;100.00
3132;BME280;62090;52.330;9.104;2024-01-16T07:58:51;100087.53;;;1.01;100.00
3132;BME280;62090;52.330;9.104;2024-01-16T08:01:21;100126.78;;;1.31;100.00
3132;BME280;62090;52.330;9.104;2024-01-16T08:03:51;100108.44;;;1.16;100.00
3132;BME280;62090;52.330;9.104;2024-01-16T08:06:22;100094.84;;;1.12;100.00
3132;BME280;62090;52.330;9.104;2024-01-16T08:08:52;100163.47;;;1.45;100.00
3132;BME280;62090;52.330;9.104;2024-01-16T08:11:25;100152.25;;;1.39;100.00
3132;BME280;62090;52.330;9.104;2024-01-16T08:13:56;100160.00;;;1.59;100.00
3132;BME280;62090;52.330;9.104;2024-01-16T08:16:26;100163.91;;;1.54;100.00
3132;BME280;62090;52.330;9.104;2024-01-16T08:18:56;100177.28;;;1.53;100.00
3132;BME280;62090;52.330;9.104;2024-01-16T08:21:26;100143.84;;;1.38;100.00
3132;BME280;62090;52.330;9.104;2024-01-16T08:23:57;100147.94;;;1.36;100.00
3132;BME280;62090;52.330;9.104;2024-01-16T08:26:29;100184.50;;;1.47;100.00
3132;BME280;62090;52.330;9.104;2024-01-16T08:28:59;100181.19;;;1.48;100.00
3132;BME280;62090;52.330;9.104;2024-01-16T08:31:30;100149.50;;;1.34;100.00
3132;BME280;62090;52.330;9.104;2024-01-16T08:34:00;100164.97;;;1.42;100.00
3132;BME280;62090;52.330;9.104;2024-01-16T08:36:30;100029.41;;;0.75;100.00
3132;BME280;62090;52.330;9.104;2024-01-16T08:39:00;100168.78;;;1.51;100.00
3132;BME280;62090;52.330;9.104;2024-01-16T08:41:33;100183.41;;;1.58;100.00
3132;BME280;62090;52.330;9.104;2024-01-16T08:44:03;100177.66;;;1.61;100.00
3132;BME280;62090;52.330;9.104;2024-01-16T08:46:34;100169.81;;;1.55;100.00
3132;BME280;62090;52.330;9.104;2024-01-16T08:49:04;100165.75;;;1.57;100.00
3132;BME280;62090;52.330;9.104;2024-01-16T08:51:34;100144.94;;;1.43;100.00
3132;BME280;62090;52.330;9.104;2024-01-16T08:54:04;100150.59;;;1.55;100.00
3132;BME280;62090;52.330;9.104;2024-01-16T08:56:37;100114.59;;;1.39;100.00
3132;BME280;62090;52.330;9.104;2024-01-16T08:59:07;100167.50;;;1.76;100.00
3132;BME280;62090;52.330;9.104;2024-01-16T09:01:37;100055.19;;;1.05;100.00
3132;BME280;62090;52.330;9.104;2024-01-16T09:04:10;100171.63;;;1.74;100.00
3132;BME280;62090;52.330;9.104;2024-01-16T09:06:40;100166.91;;;1.80;100.00
3132;BME280;62090;52.330;9.104;2024-01-16T09:09:10;100168.59;;;1.81;100.00
3132;BME280;62090;52.330;9.104;2024-01-16T09:11:45;100098.84;;;1.41;100.00
3132;BME280;62090;52.330;9.104;2024-01-16T09:14:15;100099.63;;;1.40;100.00
3132;BME280;62090;52.330;9.104;2024-01-16T09:16:47;100176.66;;;1.91;100.00
3132;BME280;62090;52.330;9.104;2024-01-16T09:19:17;100174.88;;;1.89;100.00
3132;BME280;62090;52.330;9.104;2024-01-16T09:21:48;100156.13;;;1.82;100.00
3132;BME280;62090;52.330;9.104;2024-01-16T09:24:19;100166.06;;;1.97;100.00
3132;BME280;62090;52.330;9.104;2024-01-16T09:26:51;100168.50;;;1.95;100.00
3132;BME280;62090;52.330;9.104;2024-01-16T09:29:22;100167.78;;;1.98;100.00
3132;BME280;62090;52.330;9.104;2024-01-16T09:31:52;100153.44;;;1.95;100.00
3132;BME280;62090;52.330;9.104;2024-01-16T09:34:22;100091.97;;;1.55;100.00
3132;BME280;62090;52.330;9.104;2024-01-16T09:36:52;100111.03;;;1.67;100.00
3132;BME280;62090;52.330;9.104;2024-01-16T09:39:26;100161.97;;;1.99;100.00
3132;BME280;62090;52.330;9.104;2024-01-16T09:42:00;100179.88;;;2.05;100.00
3132;BME280;62090;52.330;9.104;2024-01-16T09:44:31;100173.41;;;2.10;100.00
3132;BME280;62090;52.330;9.104;2024-01-16T09:47:02;100172.28;;;2.21;100.00
3132;BME280;62090;52.330;9.104;2024-01-16T09:49:34;100175.72;;;2.23;100.00
3132;BME280;62090;52.330;9.104;2024-01-16T09:52:06;100143.41;;;2.13;100.00
3132;BME280;62090;52.330;9.104;2024-01-16T09:54:36;100175.00;;;2.43;100.00
3132;BME280;62090;52.330;9.104;2024-01-16T09:57:12;100170.22;;;2.48;100.00
3132;BME280;62090;52.330;9.104;2024-01-16T09:59:43;100166.69;;;2.44;100.00
3132;BME280;62090;52.330;9.104;2024-01-16T10:02:14;100164.81;;;2.40;100.00
3132;BME280;62090;52.330;9.104;2024-01-16T10:04:44;100117.28;;;2.27;100.00
3132;BME280;62090;52.330;9.104;2024-01-16T10:07:15;100093.13;;;2.13;100.00
3132;BME280;62090;52.330;9.104;2024-01-16T10:09:47;100083.00;;;2.29;100.00
3132;BME280;62090;52.330;9.104;2024-01-16T10:12:19;100144.13;;;2.64;99.85
3132;BME280;62090;52.330;9.104;2024-01-16T10:14:50;100125.88;;;2.50;100.00
3132;BME280;62090;52.330;9.104;2024-01-16T10:17:20;100162.25;;;2.74;100.00
3132;BME280;62090;52.330;9.104;2024-01-16T10:19:52;100172.22;;;2.73;100.00
3132;BME280;62090;52.330;9.104;2024-01-16T10:22:24;100154.03;;;2.61;100.00
3132;BME280;62090;52.330;9.104;2024-01-16T10:25:04;100136.16;;;2.54;100.00
3132;BME280;62090;52.330;9.104;2024-01-16T10:27:39;100130.34;;;2.55;100.00
3132;BME280;62090;52.330;9.104;2024-01-16T10:30:10;100175.72;;;2.76;100.00
3132;BME280;62090;52.330;9.104;2024-01-16T10:32:41;99946.91;;;1.48;99.90
3132;BME280;62090;52.330;9.104;2024-01-16T10:35:13;100166.94;;;2.86;99.83
3132;BME280;62090;52.330;9.104;2024-01-16T10:37:45;100173.56;;;2.84;100.00
3132;BME280;62090;52.330;9.104;2024-01-16T10:40:16;100174.44;;;2.84;99.84
3132;BME280;62090;52.330;9.104;2024-01-16T10:43:00;100172.63;;;2.82;99.23
3132;BME280;62090;52.330;9.104;2024-01-16T10:45:31;100147.84;;;2.54;99.39
3132;BME280;62090;52.330;9.104;2024-01-16T10:48:02;100176.09;;;2.84;99.54
3132;BME280;62090;52.330;9.104;2024-01-16T10:50:35;100172.56;;;2.80;98.04
3132;BME280;62090;52.330;9.104;2024-01-16T10:53:07;100169.13;;;2.78;98.86
3132;BME280;62090;52.330;9.104;2024-01-16T10:55:43;100172.22;;;2.73;99.15
3132;BME280;62090;52.330;9.104;2024-01-16T10:58:16;100158.50;;;2.66;99.59
3132;BME280;62090;52.330;9.104;2024-01-16T11:00:51;100176.75;;;2.80;98.57
3132;BME280;62090;52.330;9.104;2024-01-16T11:03:31;100139.81;;;2.61;99.28
3132;BME280;62090;52.330;9.104;2024-01-16T11:06:06;100145.72;;;2.62;99.35
3132;BME280;62090;52.330;9.104;2024-01-16T11:08:37;100151.03;;;2.68;98.26
3132;BME280;62090;52.330;9.104;2024-01-16T11:11:08;100075.47;;;2.29;98.58
3132;BME280;62090;52.330;9.104;2024-01-16T11:13:41;100192.38;;;2.92;98.00
3132;BME280;62090;52.330;9.104;2024-01-16T11:16:11;100191.22;;;3.03;98.13
3132;BME280;62090;52.330;9.104;2024-01-16T11:18:42;100173.66;;;2.85;98.10
3132;BME280;62090;52.330;9.104;2024-01-16T11:21:13;100105.28;;;2.39;97.92
3132;BME280;62090;52.330;9.104;2024-01-16T11:23:46;100119.69;;;2.43;97.93
3132;BME280;62090;52.330;9.104;2024-01-16T11:26:27;100146.50;;;2.61;99.00
3132;BME280;62090;52.330;9.104;2024-01-16T11:32:08;100138.13;;;2.42;99.81
3132;BME280;62090;52.330;9.104;2024-01-16T11:34:59;100169.13;;;2.78;98.97
3132;BME280;62090;52.330;9.104;2024-01-16T11:37:30;100187.34;;;2.92;99.09
3132;BME280;62090;52.330;9.104;2024-01-16T11:40:25;100161.66;;;2.80;97.87
3132;BME280;62090;52.330;9.104;2024-01-16T11:42:56;100187.88;;;2.85;98.79
3132;BME280;62090;52.330;9.104;2024-01-16T11:45:55;100188.81;;;2.87;98.51
3132;BME280;62090;52.330;9.104;2024-01-16T11:48:26;100157.84;;;2.70;98.47
3132;BME280;62090;52.330;9.104;2024-01-16T11:50:57;100106.75;;;2.71;95.98
3132;BME280;62090;52.330;9.104;2024-01-16T11:53:37;100160.59;;;2.75;96.38
3132;BME280;62090;52.330;9.104;2024-01-16T11:56:15;100153.31;;;2.45;97.24
3132;BME280;62090;52.330;9.104;2024-01-16T11:59:18;100146.00;;;2.68;97.18
3132;BME280;62090;52.330;9.104;2024-01-16T12:02:02;100182.19;;;2.89;97.80
3132;BME280;62090;52.330;9.104;2024-01-16T12:04:36;100188.00;;;2.88;97.31
3132;BME280;62090;52.330;9.104;2024-01-16T12:07:06;100184.34;;;2.81;96.90
3132;BME280;62090;52.330;9.104;2024-01-16T12:09:38;100180.38;;;2.86;97.09
3132;BME280;62090;52.330;9.104;2024-01-16T12:12:08;100190.22;;;3.00;96.20
3132;BME280;62090;52.330;9.104;2024-01-16T12:14:39;100159.63;;;2.90;95.94
3132;BME280;62090;52.330;9.104;2024-01-16T12:17:13;100185.69;;;3.10;95.87
3132;BME280;62090;52.330;9.104;2024-01-16T12:19:45;100182.19;;;3.07;95.66
3132;BME280;62090;52.330;9.104;2024-01-16T12:22:17;100171.44;;;3.11;95.00
3132;BME280;62090;52.330;9.104;2024-01-16T12:24:50;100176.53;;;3.12;95.52
3132;BME280;62090;52.330;9.104;2024-01-16T12:27:20;100090.75;;;2.69;94.47
3132;BME280;62090;52.330;9.104;2024-01-16T12:30:04;100174.69;;;3.08;95.14
3132;BME280;62090;52.330;9.104;2024-01-16T12:32:37;100170.38;;;3.06;95.53
3132;BME280;62090;52.330;9.104;2024-01-16T12:35:08;100164.75;;;3.11;95.64
3132;BME280;62090;52.330;9.104;2024-01-16T12:37:39;100166.25;;;3.08;95.79
3132;BME280;62090;52.330;9.104;2024-01-16T12:40:09;100139.03;;;2.99;96.55
3132;BME280;62090;52.330;9.104;2024-01-16T12:42:41;100125.41;;;2.94;97.18
3132;BME280;62090;52.330;9.104;2024-01-16T12:45:12;100132.06;;;2.93;96.88
3132;BME280;62090;52.330;9.104;2024-01-16T12:47:50;100132.66;;;2.88;97.02
3132;BME280;62090;52.330;9.104;2024-01-16T12:50:21;100145.84;;;3.02;97.65
3132;BME280;62090;52.330;9.104;2024-01-16T12:53:01;100072.00;;;2.63;97.93
3132;BME280;62090;52.330;9.104;2024-01-16T12:55:35;100144.84;;;2.98;98.33
3132;BME280;62090;52.330;9.104;2024-01-16T12:58:15;100144.75;;;2.95;97.67
3132;BME280;62090;52.330;9.104;2024-01-16T13:00:49;100142.34;;;2.98;98.60
3132;BME280;62090;52.330;9.104;2024-01-16T13:03:25;100136.84;;;2.87;99.30
3132;BME280;62090;52.330;9.104;2024-01-16T13:05:58;100077.94;;;2.65;98.53
3132;BME280;62090;52.330;9.104;2024-01-16T13:08:29;100149.63;;;2.92;99.19
3132;BME280;62090;52.330;9.104;2024-01-16T13:11:03;100143.66;;;2.90;99.08
3132;BME280;62090;52.330;9.104;2024-01-16T13:13:34;100141.25;;;2.74;98.96
3132;BME280;62090;52.330;9.104;2024-01-16T13:16:05;100143.69;;;2.72;99.47
3132;BME280;62090;52.330;9.104;2024-01-16T13:18:38;100141.53;;;2.80;99.53
3132;BME280;62090;52.330;9.104;2024-01-16T13:21:08;100103.03;;;2.63;98.44
3132;BME280;62090;52.330;9.104;2024-01-16T13:23:39;100129.75;;;2.79;98.35
3132;BME280;62090;52.330;9.104;2024-01-16T13:26:09;100132.31;;;2.80;98.11
3132;BME280;62090;52.330;9.104;2024-01-16T13:28:39;100134.97;;;2.83;97.18
3132;BME280;62090;52.330;9.104;2024-01-16T13:31:10;100124.13;;;2.84;98.04
3132;BME280;62090;52.330;9.104;2024-01-16T13:33:43;100116.44;;;2.81;96.43
3132;BME280;62090;52.330;9.104;2024-01-16T13:36:14;100102.50;;;2.70;97.34